createdAt,value
2022-11-23T00:04:12.891Z,6.26
2022-11-23T00:09:14.613Z,6.13
2022-11-23T00:14:16.300Z,6.03
2022-11-23T00:19:18.016Z,5.92
2022-11-23T00:24:19.733Z,5.93
2022-11-23T00:29:21.425Z,6.02
2022-11-23T00:34:23.064Z,6.06
2022-11-23T00:39:26.204Z,6.10
2022-11-23T00:51:31.684Z,6.03
2022-11-23T00:56:34.981Z,6.04
2022-11-23T01:01:39.700Z,6.01
2022-11-23T01:06:43.225Z,5.98
2022-11-23T01:11:45.455Z,5.89
2022-11-23T01:16:47.427Z,5.80
2022-11-23T01:21:49.584Z,5.71
2022-11-23T01:26:53.395Z,5.55
2022-11-23T01:31:55.489Z,5.43
2022-11-23T01:36:57.195Z,5.38
2022-11-23T01:42:06.278Z,5.40
2022-11-23T01:47:09.521Z,5.39
2022-11-23T01:52:23.787Z,5.37
2022-11-23T01:57:33.616Z,5.44
2022-11-23T02:02:38.752Z,5.47
2022-11-23T02:07:42.190Z,5.50
2022-11-23T02:12:43.969Z,5.45
2022-11-23T02:17:47.393Z,5.40
2022-11-23T02:22:59.087Z,5.29
2022-11-23T02:28:01.716Z,5.19
2022-11-23T02:33:06.033Z,5.18
2022-11-23T02:38:07.811Z,5.18
2022-11-23T02:43:09.510Z,5.21
2022-11-23T02:48:11.452Z,5.24
2022-11-23T02:53:14.239Z,5.22
2022-11-23T02:58:15.909Z,5.19
2022-11-23T03:03:17.765Z,5.18
2022-11-23T03:08:19.423Z,5.15
2022-11-23T03:13:21.514Z,5.12
2022-11-23T03:18:23.900Z,5.08
2022-11-23T03:23:25.669Z,4.95
2022-11-23T03:28:28.351Z,4.87
2022-11-23T03:33:31.255Z,4.72
2022-11-23T03:38:33.469Z,4.66
2022-11-23T03:43:35.470Z,4.46
2022-11-23T03:48:37.351Z,4.44
2022-11-23T03:53:39.438Z,4.41
2022-11-23T03:58:41.210Z,4.34
2022-11-23T04:03:47.079Z,4.26
2022-11-23T04:09:01.720Z,4.21
2022-11-23T04:14:20.957Z,4.14
2022-11-23T04:19:23.319Z,4.12
2022-11-23T04:24:25.122Z,4.12
2022-11-23T04:29:30.083Z,4.07
2022-11-23T04:34:32.185Z,4.07
2022-11-23T04:39:37.633Z,4.06
2022-11-23T04:44:52.252Z,4.08
2022-11-23T04:49:54.637Z,4.10
2022-11-23T04:54:56.513Z,4.06
2022-11-23T04:59:59.124Z,4.12
2022-11-23T05:05:02.979Z,4.22
2022-11-23T05:10:05.428Z,4.32
2022-11-23T05:15:13.472Z,4.39
2022-11-23T05:20:16.207Z,4.45
2022-11-23T05:25:23.728Z,4.41
2022-11-23T05:30:33.410Z,4.25
2022-11-23T05:35:36.281Z,4.25
2022-11-23T05:40:38.456Z,4.39
2022-11-23T05:45:40.637Z,4.52
2022-11-23T05:50:43.700Z,4.60
2022-11-23T05:56:02.271Z,4.61
2022-11-23T06:01:09.232Z,4.58
2022-11-23T06:06:13.069Z,4.48
2022-11-23T06:11:17.725Z,4.50
2022-11-23T06:16:19.501Z,4.60
2022-11-23T06:21:48.980Z,5.50
2022-11-23T06:26:55.319Z,5.94
2022-11-23T06:31:57.435Z,6.16
2022-11-23T06:36:59.257Z,6.31
2022-11-23T06:42:16.879Z,6.36
2022-11-23T06:47:26.465Z,6.44
2022-11-23T06:52:29.036Z,6.22
2022-11-23T06:57:30.978Z,5.93
2022-11-23T07:02:32.992Z,5.59
2022-11-23T07:07:35.758Z,5.42
2022-11-23T07:12:45.307Z,5.30
2022-11-23T07:17:49.334Z,5.22
2022-11-23T07:23:01.534Z,5.19
2022-11-23T07:28:05.860Z,5.32
2022-11-23T07:33:10.025Z,5.38
2022-11-23T07:38:12.858Z,5.40
2022-11-23T07:43:14.749Z,5.39
2022-11-23T07:48:16.615Z,5.41
2022-11-23T07:53:18.368Z,5.51
2022-11-23T07:58:20.087Z,5.48
2022-11-23T08:03:30.122Z,5.49
2022-11-23T08:08:32.280Z,5.58
2022-11-23T08:13:40.154Z,5.61
2022-11-23T08:18:41.984Z,5.71
2022-11-23T08:23:43.657Z,5.78
2022-11-23T08:28:45.394Z,5.81
2022-11-23T08:33:47.259Z,5.91
2022-11-23T08:38:51.374Z,6.04
2022-11-23T08:43:53.036Z,6.12
2022-11-23T08:48:54.839Z,6.23
2022-11-23T08:53:56.623Z,6.29
2022-11-23T08:58:58.369Z,6.36
2022-11-23T09:04:00.470Z,6.47
2022-11-23T09:09:02.799Z,6.58
2022-11-23T09:14:04.456Z,6.68
2022-11-23T09:19:08.107Z,6.79
2022-11-23T09:24:13.206Z,6.94
2022-11-23T09:29:14.961Z,7.03
2022-11-23T09:34:16.753Z,7.13
2022-11-23T09:39:18.507Z,7.22
2022-11-23T09:44:32.781Z,7.33
2022-11-23T09:49:55.815Z,7.49
2022-11-23T09:55:20.590Z,7.58
2022-11-23T10:00:23.545Z,7.69
2022-11-23T10:05:27.328Z,7.82
2022-11-23T10:10:38.594Z,7.88
2022-11-23T10:16:09.828Z,8.00
2022-11-23T10:21:30.091Z,8.10
2022-11-23T10:26:36.438Z,8.15
2022-11-23T10:31:38.118Z,8.22
2022-11-23T10:36:41.259Z,8.26
2022-11-23T10:41:44.498Z,8.33
2022-11-23T10:46:46.201Z,8.36
2022-11-23T10:51:50.857Z,8.34
2022-11-23T10:56:54.217Z,8.42
2022-11-23T11:02:20.024Z,8.47
2022-11-23T11:07:28.770Z,8.56
2022-11-23T11:12:34.789Z,8.63
2022-11-23T11:17:37.936Z,8.73
2022-11-23T11:22:46.252Z,8.94
2022-11-23T11:27:52.760Z,9.00
2022-11-23T11:33:18.024Z,9.08
2022-11-23T11:38:23.935Z,9.18
2022-11-23T11:43:39.968Z,9.19
2022-11-23T11:48:53.142Z,9.43
2022-11-23T11:54:01.810Z,9.51
2022-11-23T11:59:29.795Z,9.85
2022-11-23T12:04:41.745Z,9.90
2022-11-23T12:09:48.478Z,10.08
2022-11-23T12:14:50.161Z,10.25
2022-11-23T12:20:04.392Z,10.27
2022-11-23T12:25:22.440Z,10.24
2022-11-23T12:30:30.137Z,10.36
2022-11-23T12:35:47.005Z,10.43
2022-11-23T12:40:57.661Z,10.56
2022-11-23T12:46:16.452Z,10.87
2022-11-23T12:51:21.097Z,10.66
2022-11-23T12:56:40.902Z,10.76
2022-11-23T13:01:48.454Z,10.99
2022-11-23T13:07:43.224Z,11.12
2022-11-23T13:12:54.604Z,10.97
2022-11-23T13:18:08.726Z,10.67
2022-11-23T13:23:10.562Z,10.43
2022-11-23T13:28:31.570Z,10.29
2022-11-23T13:33:38.111Z,10.21
2022-11-23T13:38:42.423Z,10.15
2022-11-23T13:43:44.312Z,10.00
2022-11-23T13:48:57.230Z,9.92
2022-11-23T13:54:03.308Z,9.85
2022-11-23T13:59:23.466Z,9.81
2022-11-23T14:04:33.200Z,9.80
2022-11-23T14:09:55.585Z,9.75
2022-11-23T14:15:06.231Z,9.64
2022-11-23T14:20:27.202Z,9.52
2022-11-23T14:25:58.234Z,9.37
2022-11-23T14:31:20.882Z,9.27
2022-11-23T14:36:33.992Z,9.24
2022-11-23T14:41:37.000Z,9.15
2022-11-23T14:46:59.196Z,8.91
2022-11-23T14:52:03.238Z,8.81
2022-11-23T14:57:06.868Z,8.65
2022-11-23T15:02:21.261Z,8.54
2022-11-23T15:07:28.757Z,8.31
2022-11-23T15:12:46.650Z,8.17
2022-11-23T15:17:58.062Z,7.96
2022-11-23T15:23:03.704Z,7.82
2022-11-23T15:28:16.966Z,7.70
2022-11-23T15:33:21.401Z,7.66
2022-11-23T15:38:24.157Z,7.63
2022-11-23T15:43:26.025Z,7.56
2022-11-23T15:48:35.213Z,7.52
2022-11-23T15:53:51.783Z,7.53
2022-11-23T15:58:54.295Z,7.48
2022-11-23T16:04:04.698Z,7.36
2022-11-23T16:09:51.344Z,7.28
2022-11-23T16:14:59.283Z,7.23
2022-11-23T16:20:04.887Z,7.25
2022-11-23T16:25:17.320Z,7.19
2022-11-23T16:30:25.201Z,7.11
2022-11-23T16:35:26.940Z,6.86
2022-11-23T16:40:28.654Z,6.85
2022-11-23T16:45:31.892Z,6.78
2022-11-23T16:50:34.449Z,6.72
2022-11-23T16:55:42.103Z,6.75
2022-11-23T17:00:45.871Z,6.64
2022-11-23T17:05:48.336Z,6.69
2022-11-23T17:10:51.242Z,6.72
2022-11-23T17:15:53.211Z,6.77
2022-11-23T17:20:56.057Z,6.64
2022-11-23T17:25:58.101Z,6.55
2022-11-23T17:30:59.869Z,6.51
2022-11-23T17:36:01.721Z,6.47
2022-11-23T17:41:03.556Z,6.49
2022-11-23T17:46:05.997Z,6.49
2022-11-23T17:51:10.998Z,6.53
2022-11-23T17:56:19.387Z,6.22
2022-11-23T18:01:22.183Z,5.89
2022-11-23T18:06:24.338Z,5.68
2022-11-23T18:11:26.237Z,5.49
2022-11-23T18:16:28.006Z,5.34
2022-11-23T18:21:30.160Z,5.26
2022-11-23T18:26:31.988Z,5.17
2022-11-23T18:31:33.948Z,4.98
2022-11-23T18:36:35.830Z,4.78
2022-11-23T18:41:37.462Z,4.67
2022-11-23T18:46:41.068Z,4.56
2022-11-23T18:51:42.841Z,4.49
2022-11-23T18:56:44.597Z,4.49
2022-11-23T19:01:46.322Z,4.50
2022-11-23T19:06:48.169Z,4.35
2022-11-23T19:11:51.657Z,4.22
2022-11-23T19:16:53.614Z,4.18
2022-11-23T19:21:55.342Z,4.23
2022-11-23T19:26:57.029Z,4.20
2022-11-23T19:31:58.737Z,4.17
2022-11-23T19:37:00.920Z,4.30
2022-11-23T19:42:03.624Z,4.44
2022-11-23T19:47:11.666Z,4.54
2022-11-23T19:52:15.651Z,4.73
2022-11-23T19:57:17.409Z,4.96
2022-11-23T20:02:24.519Z,5.22
2022-11-23T20:07:26.442Z,5.40
2022-11-23T20:12:28.430Z,5.52
2022-11-23T20:17:30.284Z,5.55
2022-11-23T20:22:32.008Z,5.64
2022-11-23T20:27:33.723Z,5.75
2022-11-23T20:32:35.423Z,5.87
2022-11-23T20:37:37.364Z,5.99
2022-11-23T20:42:39.316Z,6.03
2022-11-23T20:47:41.532Z,6.06
2022-11-23T20:52:43.242Z,6.11
2022-11-23T20:57:44.977Z,6.15
2022-11-23T21:02:53.925Z,6.16
2022-11-23T21:07:55.669Z,6.17
2022-11-23T21:13:16.603Z,6.14
2022-11-23T21:18:18.536Z,5.99
2022-11-23T21:23:20.239Z,5.97
2022-11-23T21:28:21.990Z,6.01
2022-11-23T21:33:23.664Z,6.04
2022-11-23T21:38:35.398Z,6.16
2022-11-23T21:43:37.418Z,6.25
2022-11-23T21:48:40.111Z,6.26
2022-11-23T21:53:42.039Z,6.25
2022-11-23T21:58:44.108Z,6.26
2022-11-23T22:03:54.373Z,6.35
2022-11-23T22:08:58.169Z,6.42
2022-11-23T22:14:02.052Z,6.49
2022-11-23T22:19:04.811Z,6.54
2022-11-23T22:24:10.464Z,6.54
2022-11-23T22:29:12.420Z,6.53
2022-11-23T22:34:14.303Z,6.53
2022-11-23T22:39:16.013Z,6.52
2022-11-23T22:44:17.727Z,6.56
2022-11-23T22:49:19.416Z,6.54
2022-11-23T22:54:21.078Z,6.52
2022-11-23T22:59:22.796Z,6.46
2022-11-23T23:04:25.472Z,6.42
2022-11-23T23:09:27.094Z,6.41
2022-11-23T23:14:28.841Z,6.38
2022-11-23T23:19:30.548Z,6.38
2022-11-23T23:24:32.848Z,6.44
2022-11-23T23:29:34.850Z,6.52
2022-11-23T23:34:36.668Z,6.58
2022-11-23T23:39:38.775Z,6.72
2022-11-23T23:44:40.437Z,6.76
2022-11-23T23:49:42.154Z,6.85
2022-11-23T23:54:43.850Z,6.92
2022-11-23T23:59:45.521Z,7.06
